Time;durP1;ratioP1;P1;durP2;ratioP2;P2;SDS_P1;SDS_P2;PMS_P1;PMS_P2;Temp;Humidity;BMP_temperature;BMP_pressure;BME280_temperature;BME280_humidity;BME280_pressure;Samples;Min_cycle;Max_cycle;Signal;HPM_P1;HPM_P2
2022/06/27 00:02:13;;;;;;;2.15;1.00;;;;;;;23.38;54.37;98748.81;5112697;28;20043;-66
2022/06/27 00:04:58;;;;;;;2.05;1.20;;;;;;;23.36;54.13;98748.16;5098176;28;20039;-66
2022/06/27 00:07:43;;;;;;;1.85;1.08;;;;;;;23.33;54.07;98753.88;5097434;28;20548;-67
2022/06/27 00:10:28;;;;;;;2.70;1.10;;;;;;;23.29;54.76;98753.44;5100388;28;20050;-66
2022/06/27 00:13:13;;;;;;;2.08;1.40;;;;;;;23.24;55.08;98755.88;5112945;28;20359;-66
2022/06/27 00:15:58;;;;;;;2.38;1.27;;;;;;;23.22;55.23;98748.03;5097802;28;20110;-64
2022/06/27 00:18:43;;;;;;;1.70;1.30;;;;;;;23.16;54.83;98746.09;5087430;28;20077;-65
2022/06/27 00:21:27;;;;;;;2.72;1.23;;;;;;;23.11;55.28;98744.00;5081161;28;20479;-65
2022/06/27 00:24:12;;;;;;;1.52;1.10;;;;;;;23.07;54.31;98742.72;5113246;28;20134;-65
2022/06/27 00:26:58;;;;;;;1.83;1.33;;;;;;;22.98;54.53;98743.84;5098750;28;20035;-66
2022/06/27 00:29:42;;;;;;;1.48;1.17;;;;;;;22.89;55.11;98740.44;5081155;28;20459;-66
2022/06/27 00:32:29;;;;;;;1.92;1.20;;;;;;;22.87;55.17;98739.81;5115837;28;20035;-65
2022/06/27 00:35:14;;;;;;;2.17;1.35;;;;;;;22.76;55.55;98741.09;5101350;28;20042;-65
2022/06/27 00:37:58;;;;;;;2.03;1.38;;;;;;;22.77;55.80;98748.09;5100568;28;20040;-65
2022/06/27 00:40:43;;;;;;;1.70;1.20;;;;;;;22.77;55.81;98740.09;5068173;28;20043;-65
2022/06/27 00:43:28;;;;;;;1.67;1.13;;;;;;;22.69;56.10;98737.50;5096938;28;20089;-65
2022/06/27 00:46:13;;;;;;;3.65;1.40;;;;;;;22.66;56.31;98741.38;5086757;28;20051;-65
2022/06/27 00:48:58;;;;;;;2.58;1.45;;;;;;;22.61;56.98;98738.44;5101554;28;20120;-63
2022/06/27 00:51:42;;;;;;;3.38;1.77;;;;;;;22.58;56.80;98736.94;5100831;28;20050;-64
2022/06/27 00:54:28;;;;;;;1.83;1.42;;;;;;;22.58;56.45;98742.28;5081742;28;20032;-65
2022/06/27 00:57:14;;;;;;;2.67;1.45;;;;;;;22.52;56.67;98743.84;5086032;28;20032;-66
2022/06/27 01:00:00;;;;;;;2.10;1.10;;;;;;;22.56;56.66;98743.47;5100702;28;20043;-66
2022/06/27 01:02:45;;;;;;;3.33;1.30;;;;;;;22.47;57.84;98743.59;5071450;28;20038;-65
2022/06/27 01:05:30;;;;;;;2.15;1.30;;;;;;;22.37;57.14;98746.53;5100021;28;20044;-62
2022/06/27 01:08:14;;;;;;;2.00;1.70;;;;;;;22.34;57.69;98746.88;5093462;28;20039;-65
2022/06/27 01:11:00;;;;;;;2.30;1.50;;;;;;;22.27;57.66;98754.78;5099997;28;20055;-65
2022/06/27 01:13:46;;;;;;;1.55;1.23;;;;;;;22.27;57.84;98756.63;5099338;28;20110;-65
2022/06/27 01:16:31;;;;;;;2.10;1.23;;;;;;;22.22;58.13;98759.00;5086301;28;20100;-65
2022/06/27 01:19:17;;;;;;;2.58;1.23;;;;;;;22.20;58.16;98753.84;5095238;28;20063;-65
2022/06/27 01:22:21;;;;;;;2.78;1.27;;;;;;;22.11;58.55;98754.94;5114423;28;20043;-64
2022/06/27 01:25:06;;;;;;;1.92;1.40;;;;;;;22.05;58.61;98753.00;5093177;28;20131;-64
2022/06/27 01:27:52;;;;;;;2.83;1.33;;;;;;;21.99;58.97;98757.19;5098569;28;20394;-65
2022/06/27 01:30:39;;;;;;;2.15;1.40;;;;;;;21.96;60.02;98755.72;5050293;28;20059;-65
2022/06/27 01:33:24;;;;;;;2.10;1.23;;;;;;;21.88;60.18;98753.13;5094909;28;20058;-64
2022/06/27 01:39:21;;;;;;;4.05;1.45;;;;;;;21.77;60.74;98757.03;5077860;28;20387;-65
2022/06/27 01:42:06;;;;;;;2.47;1.40;;;;;;;21.80;61.00;98751.38;5096894;28;20368;-65
2022/06/27 01:44:52;;;;;;;3.60;1.50;;;;;;;21.71;61.71;98755.88;5098385;28;20478;-65
2022/06/27 01:47:37;;;;;;;2.40;1.40;;;;;;;21.70;61.97;98759.56;5078603;28;20104;-65
2022/06/27 01:50:29;;;;;;;1.75;1.10;;;;;;;21.86;62.38;98760.47;5081882;28;20043;-65
2022/06/27 01:53:16;;;;;;;1.40;1.30;;;;;;;21.67;62.18;98758.06;5089708;28;20076;-65
2022/06/27 01:56:01;;;;;;;1.00;0.90;;;;;;;21.77;63.58;98749.88;5093759;28;20038;-65
2022/06/27 01:58:48;;;;;;;1.20;0.93;;;;;;;21.88;63.26;98753.13;5097906;28;20406;-65
2022/06/27 02:01:35;;;;;;;2.40;1.05;;;;;;;21.82;62.99;98767.19;5083981;28;20477;-65
2022/06/27 02:04:20;;;;;;;1.65;1.45;;;;;;;21.73;62.60;98766.38;5097440;28;20471;-64
2022/06/27 02:07:05;;;;;;;2.05;1.27;;;;;;;21.66;63.28;98768.91;5073509;28;20040;-65
2022/06/27 02:09:50;;;;;;;2.50;1.25;;;;;;;21.57;62.92;98772.66;5095857;28;20092;-64
2022/06/27 02:12:40;;;;;;;1.67;1.25;;;;;;;21.69;63.90;98768.56;5097983;28;20047;-64
2022/06/27 02:15:25;;;;;;;1.27;0.93;;;;;;;21.86;63.99;98771.13;5085709;28;20131;-65
2022/06/27 02:18:10;;;;;;;1.40;1.17;;;;;;;21.84;64.12;98768.66;5098016;28;20048;-64
2022/06/27 02:20:55;;;;;;;1.73;1.35;;;;;;;21.94;64.19;98772.91;5043167;28;1141023;-64
2022/06/27 02:23:43;;;;;;;2.17;1.08;;;;;;;21.89;63.88;98768.94;5093696;28;20040;-64
2022/06/27 02:26:29;;;;;;;1.25;0.85;;;;;;;21.90;64.97;98769.78;5107260;28;20054;-65
2022/06/27 02:29:14;;;;;;;1.67;1.27;;;;;;;21.91;64.49;98766.09;5098640;28;20058;-65
2022/06/27 02:32:00;;;;;;;1.40;1.00;;;;;;;21.86;65.35;98771.13;5101550;28;20116;-64
2022/06/27 02:34:50;;;;;;;2.65;1.30;;;;;;;21.63;66.18;98766.59;5096506;28;20062;-64
2022/06/27 02:37:36;;;;;;;2.83;1.55;;;;;;;21.54;65.90;98769.31;5098217;28;20031;-65
2022/06/27 02:40:22;;;;;;;2.45;1.50;;;;;;;21.49;66.74;98763.72;5083357;28;20493;-64
2022/06/27 02:43:09;;;;;;;1.40;1.10;;;;;;;21.56;67.23;98760.34;5099950;28;20091;-66
2022/06/27 02:45:55;;;;;;;4.45;1.40;;;;;;;21.45;67.23;98756.22;5113013;28;20044;-67
2022/06/27 02:48:48;;;;;;;2.17;1.17;;;;;;;21.41;68.23;98766.44;5100313;28;20044;-64
2022/06/27 02:52:02;;;;;;;2.42;1.38;;;;;;;21.34;68.28;98768.13;5084103;28;20035;-65
2022/06/27 02:54:59;;;;;;;2.92;1.58;;;;;;;21.38;68.31;98772.13;5066735;28;20429;-65
2022/06/27 02:57:53;;;;;;;2.40;1.15;;;;;;;21.40;68.96;98770.09;5092235;28;20039;-64
2022/06/27 03:00:42;;;;;;;3.65;1.63;;;;;;;21.47;68.41;98772.88;5098091;28;20043;-65
2022/06/27 03:03:33;;;;;;;1.38;1.00;;;;;;;21.65;68.00;98772.59;5098256;28;20036;-64
2022/06/27 03:06:18;;;;;;;0.93;0.77;;;;;;;21.71;67.51;98768.38;5097699;28;20119;-64
2022/06/27 03:09:05;;;;;;;2.20;1.42;;;;;;;21.66;68.31;98776.91;5081203;28;20047;-65
2022/06/27 03:11:49;;;;;;;2.08;1.45;;;;;;;21.53;68.42;98774.84;5097226;28;20047;-66
2022/06/27 03:14:35;;;;;;;3.08;1.65;;;;;;;21.54;68.78;98779.19;5097682;28;20709;-65
2022/06/27 03:17:20;;;;;;;1.80;1.33;;;;;;;21.53;68.34;98774.84;5085289;28;20044;-65
2022/06/27 03:20:25;;;;;;;2.22;1.33;;;;;;;21.46;69.20;98780.03;5096742;28;20063;-66
2022/06/27 03:23:33;;;;;;;1.92;1.73;;;;;;;21.50;68.71;98784.03;5077918;28;20054;-63
2022/06/27 03:26:18;;;;;;;1.60;1.33;;;;;;;21.56;68.31;98784.31;5066702;28;20047;-65
2022/06/27 03:29:07;;;;;;;2.80;1.35;;;;;;;21.47;68.63;98783.53;5086456;28;20040;-65
2022/06/27 03:31:55;;;;;;;1.48;1.38;;;;;;;21.38;69.39;98772.13;5096626;28;20043;-65
2022/06/27 03:34:41;;;;;;;4.70;1.70;;;;;;;21.34;69.22;98776.97;5097283;28;20109;-64
2022/06/27 03:37:35;;;;;;;1.98;1.55;;;;;;;21.42;69.03;98770.75;5086226;28;20048;-65
2022/06/27 03:40:21;;;;;;;2.50;1.95;;;;;;;21.40;68.26;98773.59;5095694;28;20501;-65
2022/06/27 03:43:09;;;;;;;1.98;1.52;;;;;;;21.46;68.35;98785.38;5096983;28;20143;-66
2022/06/27 03:45:55;;;;;;;2.17;1.40;;;;;;;21.42;68.16;98774.25;5075335;28;20051;-67
2022/06/27 03:52:06;;;;;;;2.97;1.98;;;;;;;21.12;68.67;98775.91;5108014;28;20046;-66
2022/06/27 03:54:51;;;;;;;3.03;1.80;;;;;;;21.28;68.58;98781.13;5084430;28;20372;-65
2022/06/27 03:57:46;;;;;;;2.40;1.40;;;;;;;21.29;68.55;98772.16;5082656;28;20065;-65
2022/06/27 04:00:32;;;;;;;3.13;2.03;;;;;;;21.41;68.27;98777.09;5076063;28;20044;-65
2022/06/27 04:03:20;;;;;;;3.88;2.00;;;;;;;21.44;67.33;98773.22;5069614;28;20054;-63
2022/06/27 04:06:10;;;;;;;4.57;2.40;;;;;;;21.25;67.95;98773.50;5096263;28;20036;-64
2022/06/27 04:08:56;;;;;;;3.47;1.90;;;;;;;21.25;68.19;98784.16;5082842;28;20040;-64
2022/06/27 04:11:41;;;;;;;3.00;2.28;;;;;;;21.27;68.14;98789.31;5095838;28;20063;-64
2022/06/27 04:14:30;;;;;;;4.50;2.40;;;;;;;21.43;67.91;98785.72;5096097;28;20036;-66
2022/06/27 04:17:42;;;;;;;3.03;2.00;;;;;;;21.49;67.50;98790.38;5097360;28;20097;-63
2022/06/27 04:20:45;;;;;;;3.42;2.47;;;;;;;21.64;66.26;98797.59;5107007;28;20063;-64
2022/06/27 04:23:32;;;;;;;4.18;1.95;;;;;;;21.70;65.76;98801.38;5094356;28;20065;-65
2022/06/27 04:26:44;;;;;;;3.28;1.98;;;;;;;21.74;65.85;98795.50;5080875;28;20036;-66
2022/06/27 04:29:31;;;;;;;3.42;1.95;;;;;;;21.73;65.53;98803.69;5103360;28;20063;-65
2022/06/27 04:32:18;;;;;;;4.20;2.72;;;;;;;21.72;65.54;98796.72;5096842;28;20122;-67
2022/06/27 04:35:04;;;;;;;2.80;1.95;;;;;;;21.60;65.91;98797.13;5082599;28;20063;-64
2022/06/27 04:37:48;;;;;;;3.67;2.38;;;;;;;21.67;66.18;98795.38;5083170;28;20057;-65
2022/06/27 04:40:46;;;;;;;4.75;2.70;;;;;;;21.63;66.26;98787.94;5111912;28;20084;-65
2022/06/27 04:43:35;;;;;;;3.58;2.10;;;;;;;21.83;65.65;98785.66;5096712;28;20467;-65
2022/06/27 04:46:20;;;;;;;3.22;2.08;;;;;;;21.90;66.03;98788.44;5083445;28;20052;-65
2022/06/27 04:49:35;;;;;;;3.13;2.38;;;;;;;21.85;65.36;98788.16;5095683;28;20057;-65
2022/06/27 04:52:20;;;;;;;2.70;1.90;;;;;;;21.78;66.15;98788.88;5082159;28;20043;-65
2022/06/27 04:55:10;;;;;;;3.53;2.65;;;;;;;21.75;65.73;98788.34;5072623;28;20490;-64
2022/06/27 04:57:55;;;;;;;3.77;2.20;;;;;;;22.05;65.60;98791.16;5080768;28;20096;-65
2022/06/27 05:00:40;;;;;;;4.97;2.88;;;;;;;21.82;65.78;98791.19;5081649;28;20051;-65
2022/06/27 05:03:35;;;;;;;2.58;2.08;;;;;;;21.61;66.93;98781.97;5100749;28;20038;-65
2022/06/27 05:06:26;;;;;;;;;;;;;;;21.44;67.38;98768.75;5095944;28;20054;-64
2022/06/27 05:09:12;;;;;;;3.75;1.90;;;;;;;21.64;67.06;98778.94;5096307;28;19930;-65
2022/06/27 05:11:56;;;;;;;2.92;2.17;;;;;;;21.74;66.65;98781.38;5096949;28;20032;-65
2022/06/27 05:14:41;;;;;;;4.65;3.03;;;;;;;21.74;66.33;98786.72;5104965;28;20051;-65
2022/06/27 05:17:28;;;;;;;3.40;2.17;;;;;;;21.92;66.51;98791.75;5100452;28;20042;-65
2022/06/27 05:20:13;;;;;;;6.07;3.50;;;;;;;21.85;65.92;98790.81;5099770;28;20483;-65
2022/06/27 05:23:01;;;;;;;4.55;3.30;;;;;;;22.07;65.49;98797.13;5099474;28;20046;-65
2022/06/27 05:25:48;;;;;;;6.95;2.67;;;;;;;22.26;65.54;98803.00;5099321;28;20043;-64
2022/06/27 05:28:33;;;;;;;4.75;3.10;;;;;;;22.21;65.05;98813.38;5099731;28;20520;-65
2022/06/27 05:31:18;;;;;;;3.08;2.03;;;;;;;22.34;65.01;98807.41;5079006;28;20450;-64
2022/06/27 05:34:05;;;;;;;4.18;3.15;;;;;;;22.32;64.93;98812.94;5079061;28;20044;-65
2022/06/27 05:36:50;;;;;;;5.68;4.00;;;;;;;22.38;64.55;98814.03;5096728;28;20044;-65
2022/06/27 05:39:35;;;;;;;5.53;4.07;;;;;;;22.59;64.38;98815.16;5086425;28;20118;-65
2022/06/27 05:42:21;;;;;;;4.32;3.10;;;;;;;22.91;63.87;98805.19;5099894;28;20040;-65
2022/06/27 05:45:08;;;;;;;6.40;3.33;;;;;;;22.84;63.33;98810.44;5099868;28;20043;-65
2022/06/27 05:48:05;;;;;;;4.32;3.33;;;;;;;22.64;63.92;98821.66;5099472;28;20379;-64
2022/06/27 05:50:58;;;;;;;5.43;3.60;;;;;;;22.63;63.94;98822.69;5102043;28;20050;-64
2022/06/27 05:53:43;;;;;;;6.45;3.30;;;;;;;22.86;63.58;98812.91;5103641;28;20091;-67
2022/06/27 05:56:30;;;;;;;3.80;2.60;;;;;;;22.89;64.03;98813.38;5101848;28;20084;-65
2022/06/27 05:59:16;;;;;;;3.95;2.97;;;;;;;22.99;63.55;98805.09;5084834;28;20043;-65
2022/06/27 06:02:02;;;;;;;4.15;2.80;;;;;;;23.50;62.68;98808.78;5098319;28;20066;-66
2022/06/27 06:04:52;;;;;;;8.02;4.47;;;;;;;23.58;61.96;98804.34;5098581;28;20032;-65
2022/06/27 06:07:38;;;;;;;5.13;3.10;;;;;;;23.34;63.25;98815.16;5097986;28;20073;-65
2022/06/27 06:10:23;;;;;;;6.55;4.07;;;;;;;23.43;62.61;98815.91;5088211;28;20031;-65
2022/06/27 06:13:08;;;;;;;5.38;3.63;;;;;;;23.40;62.45;98826.16;5097801;28;20039;-65
2022/06/27 06:15:54;;;;;;;5.25;3.65;;;;;;;23.50;62.79;98822.16;5114067;28;20051;-65
2022/06/27 06:18:39;;;;;;;6.55;3.65;;;;;;;23.63;62.14;98818.78;5083588;28;20028;-64
2022/06/27 06:21:26;;;;;;;5.20;3.88;;;;;;;23.45;62.55;98818.41;5097706;28;20059;-65
2022/06/27 06:24:11;;;;;;;7.28;3.92;;;;;;;23.62;62.25;98821.66;5094762;28;20475;-66
2022/06/27 06:26:56;;;;;;;8.15;4.00;;;;;;;23.85;61.52;98821.50;5098535;28;20043;-66
2022/06/27 06:29:42;;;;;;;5.72;4.03;;;;;;;23.69;62.09;98830.59;5098037;28;20450;-66
2022/06/27 06:32:29;;;;;;;6.90;3.83;;;;;;;24.34;60.32;98829.75;5087209;28;20043;-65
2022/06/27 06:35:15;;;;;;;5.68;3.42;;;;;;;24.16;60.83;98834.75;5097402;28;20409;-66
2022/06/27 06:38:01;;;;;;;4.72;3.50;;;;;;;24.20;59.89;98834.19;5096207;28;20047;-66
2022/06/27 06:40:46;;;;;;;5.97;3.40;;;;;;;24.55;59.21;98835.25;5097598;28;20114;-65
2022/06/27 06:43:31;;;;;;;6.45;3.60;;;;;;;24.68;58.95;98835.34;5098376;28;20188;-65
2022/06/27 06:46:35;;;;;;;4.82;3.60;;;;;;;24.59;58.89;98842.72;5105024;28;20169;-64
2022/06/27 06:49:23;;;;;;;3.90;2.85;;;;;;;24.86;58.68;98839.38;5096652;28;20040;-65
2022/06/27 06:52:09;;;;;;;7.57;2.90;;;;;;;25.19;57.48;98840.59;5112971;28;20032;-66
2022/06/27 06:54:53;;;;;;;5.10;3.10;;;;;;;25.34;56.35;98852.03;5067049;28;20028;-65
2022/06/27 06:57:38;;;;;;;4.90;2.85;;;;;;;25.18;57.03;98841.63;5067223;28;20164;-65
2022/06/27 07:00:23;;;;;;;4.47;2.85;;;;;;;25.15;57.20;98842.03;5096868;28;20039;-65
2022/06/27 07:03:10;;;;;;;4.10;2.83;;;;;;;25.75;55.42;98841.44;5097388;28;20069;-66
2022/06/27 07:05:56;;;;;;;5.28;4.03;;;;;;;25.81;55.11;98843.31;5091214;28;20036;-66
2022/06/27 07:08:41;;;;;;;7.80;3.40;;;;;;;25.92;55.04;98839.19;5113173;28;20049;-65
2022/06/27 07:11:31;;;;;;;4.78;3.20;;;;;;;26.01;54.34;98839.00;5112160;28;20111;-65
2022/06/27 07:14:18;;;;;;;4.38;3.20;;;;;;;26.06;54.54;98837.38;5097225;28;20474;-65
2022/06/27 07:17:02;;;;;;;4.70;3.05;;;;;;;26.04;54.98;98833.22;5101806;28;20067;-65
2022/06/27 07:19:48;;;;;;;6.53;3.17;;;;;;;25.97;55.05;98837.75;5111979;28;20032;-64
2022/06/27 07:22:34;;;;;;;6.93;2.90;;;;;;;25.94;54.90;98839.81;5096540;28;20410;-65
2022/06/27 07:25:19;;;;;;;4.05;3.00;;;;;;;26.40;54.28;98841.91;5112575;28;20453;-64
2022/06/27 07:28:04;;;;;;;6.22;2.78;;;;;;;26.98;52.54;98842.25;5111797;28;20185;-65
2022/06/27 07:30:50;;;;;;;5.38;3.28;;;;;;;26.92;52.50;98850.13;5112618;28;20111;-64
2022/06/27 07:33:39;;;;;;;5.50;3.22;;;;;;;26.76;52.47;98845.19;5096253;28;20047;-64
2022/06/27 07:36:26;;;;;;;4.18;2.92;;;;;;;27.37;50.89;98842.34;5111825;28;20110;-66
2022/06/27 07:39:11;;;;;;;3.00;2.67;;;;;;;27.36;51.44;98849.56;5084865;28;20064;-66
2022/06/27 07:41:56;;;;;;;3.60;2.33;;;;;;;27.50;50.98;98846.81;5111768;28;20043;-67
2022/06/27 07:44:41;;;;;;;5.50;2.70;;;;;;;27.78;50.48;98841.09;5084793;28;20028;-65
2022/06/27 07:47:26;;;;;;;4.78;2.95;;;;;;;28.04;49.66;98847.34;5097190;28;20040;-66
2022/06/27 07:50:36;;;;;;;6.30;2.70;;;;;;;27.94;50.62;98836.25;5099356;28;20035;-65
2022/06/27 07:53:17;;;;;;;3.95;2.53;;;;;;;28.55;48.49;98838.47;5117985;28;20123;-65
2022/06/27 07:56:06;;;;;;;5.10;3.00;;;;;;;28.48;48.28;98833.13;5084345;28;20032;-64
2022/06/27 07:58:50;;;;;;;4.07;3.00;;;;;;;28.53;48.06;98841.38;5112448;28;20047;-65
2022/06/27 08:01:35;;;;;;;4.05;2.72;;;;;;;28.78;47.78;98845.91;5112899;28;20047;-66
2022/06/27 08:04:19;;;;;;;3.92;2.33;;;;;;;28.92;47.39;98845.78;5117231;28;20052;-65
2022/06/27 08:07:04;;;;;;;4.65;3.05;;;;;;;28.85;47.91;98858.47;5109939;28;20036;-65
2022/06/27 08:09:49;;;;;;;5.70;2.88;;;;;;;29.64;45.31;98838.06;5112167;28;20112;-65
2022/06/27 08:12:35;;;;;;;5.90;2.60;;;;;;;29.77;45.41;98836.25;5096758;28;20048;-66
2022/06/27 08:15:20;;;;;;;3.72;2.65;;;;;;;30.09;44.82;98835.97;5084816;28;20044;-65
2022/06/27 08:18:07;;;;;;;5.93;2.72;;;;;;;29.51;45.15;98841.75;5096109;28;20089;-65
2022/06/27 08:20:52;;;;;;;4.13;2.25;;;;;;;29.33;46.01;98829.94;5096525;28;20044;-64
2022/06/27 08:23:38;;;;;;;7.20;2.70;;;;;;;29.96;44.96;98831.59;5095943;28;20043;-65
2022/06/27 08:26:23;;;;;;;4.60;2.00;;;;;;;29.52;45.53;98827.22;5096276;28;20058;-66
2022/06/27 08:29:08;;;;;;;5.28;2.05;;;;;;;29.73;45.30;98828.63;5111904;28;20479;-66
2022/06/27 08:31:53;;;;;;;3.88;2.45;;;;;;;29.36;46.35;98826.78;5086921;28;20487;-66
2022/06/27 08:34:39;;;;;;;5.03;2.40;;;;;;;29.92;45.21;98835.81;5111740;28;20035;-66
2022/06/27 08:37:24;;;;;;;4.50;1.98;;;;;;;30.44;44.02;98839.78;5112245;28;20400;-65
2022/06/27 08:40:11;;;;;;;4.07;2.00;;;;;;;29.80;46.18;98841.19;5110885;28;20032;-66
2022/06/27 08:42:56;;;;;;;2.08;1.70;;;;;;;29.79;47.70;98834.94;5069069;28;20043;-66
2022/06/27 08:45:43;;;;;;;1.98;1.67;;;;;;;29.70;47.88;98831.78;5111157;28;20051;-66
2022/06/27 08:48:31;;;;;;;6.88;1.58;;;;;;;30.56;45.84;98834.34;5115083;28;20426;-66
2022/06/27 08:51:18;;;;;;;2.97;1.35;;;;;;;31.04;44.70;98834.34;5101770;28;20455;-64
2022/06/27 08:54:04;;;;;;;2.42;1.30;;;;;;;30.18;47.06;98834.56;5077661;28;20056;-64
2022/06/27 08:56:50;;;;;;;1.80;1.45;;;;;;;30.09;47.05;98838.66;5073621;28;20048;-66
2022/06/27 08:59:36;;;;;;;4.28;1.35;;;;;;;30.29;47.25;98827.56;5113026;28;20036;-64
2022/06/27 09:02:23;;;;;;;3.45;1.60;;;;;;;30.49;46.46;98831.78;5082802;28;20517;-64
2022/06/27 09:05:26;;;;;;;2.33;1.63;;;;;;;30.54;47.64;98829.19;5103184;28;20104;-67
2022/06/27 09:08:11;;;;;;;2.92;1.40;;;;;;;31.15;45.57;98819.94;5114778;28;20044;-65
2022/06/27 09:10:59;;;;;;;1.95;1.40;;;;;;;30.16;48.06;98823.19;5115124;28;20388;-64
2022/06/27 09:13:44;;;;;;;2.28;1.20;;;;;;;30.41;46.46;98814.03;5103819;28;20035;-67
2022/06/27 09:16:29;;;;;;;2.28;1.38;;;;;;;31.32;45.62;98819.19;5113955;28;20035;-66
2022/06/27 09:19:14;;;;;;;3.53;1.70;;;;;;;31.72;44.31;98814.78;5114995;28;20036;-66
2022/06/27 09:22:12;;;;;;;2.83;1.52;;;;;;;30.94;46.80;98813.31;5099426;28;20047;-66
2022/06/27 09:25:12;;;;;;;2.75;1.65;;;;;;;31.96;43.15;98815.50;5099987;28;20051;-65
2022/06/27 09:28:01;;;;;;;1.88;1.30;;;;;;;31.87;43.71;98816.13;5100546;28;20441;-66
2022/06/27 09:30:46;;;;;;;6.28;1.30;;;;;;;32.57;42.26;98813.16;5102958;28;20058;-66
2022/06/27 09:33:31;;;;;;;1.52;1.00;;;;;;;32.05;43.29;98810.50;5113965;28;20028;-65
2022/06/27 09:36:17;;;;;;;3.30;1.20;;;;;;;31.50;45.47;98811.97;5114754;28;20043;-65
2022/06/27 09:39:04;;;;;;;5.57;1.63;;;;;;;32.42;42.48;98802.91;5085930;28;20101;-66
2022/06/27 09:41:58;;;;;;;1.63;1.20;;;;;;;31.28;44.92;98807.19;5115949;28;20044;-66
2022/06/27 09:44:45;;;;;;;3.40;1.30;;;;;;;31.56;43.97;98800.16;5107896;28;20062;-65
2022/06/27 09:47:30;;;;;;;2.78;1.35;;;;;;;32.06;43.38;98792.34;5114452;28;20487;-65
2022/06/27 09:50:15;;;;;;;4.28;1.33;;;;;;;31.98;43.10;98792.75;5085989;28;20046;-65
2022/06/27 09:53:02;;;;;;;2.35;1.23;;;;;;;32.61;41.84;98797.22;5108528;28;20043;-64
2022/06/27 09:55:48;;;;;;;1.52;1.20;;;;;;;33.05;39.95;98789.09;5101108;28;20044;-69
2022/06/27 09:58:33;;;;;;;2.65;1.15;;;;;;;33.07;40.26;98783.41;5104184;28;20047;-66
2022/06/27 10:01:20;;;;;;;1.83;0.98;;;;;;;33.20;39.93;98790.34;5098442;28;20059;-65
2022/06/27 10:04:10;;;;;;;2.38;1.30;;;;;;;31.79;43.24;98782.16;5099377;28;20040;-66
2022/06/27 10:06:58;;;;;;;3.78;1.33;;;;;;;33.03;40.62;98780.41;5087601;28;20055;-65
2022/06/27 10:09:44;;;;;;;6.72;1.45;;;;;;;32.94;41.36;98785.44;5113677;28;20071;-65
2022/06/27 10:12:32;;;;;;;4.68;1.40;;;;;;;33.49;40.12;98779.25;5113926;28;20046;-65
2022/06/27 10:15:17;;;;;;;2.45;1.10;;;;;;;34.00;39.05;98778.06;5086227;28;20031;-66
2022/06/27 10:18:02;;;;;;;5.35;1.30;;;;;;;33.73;39.24;98778.97;5083365;28;20417;-66
2022/06/27 10:20:50;;;;;;;6.35;1.30;;;;;;;34.10;39.08;98771.88;5113350;28;20071;-68
2022/06/27 10:23:37;;;;;;;3.28;1.45;;;;;;;33.96;38.89;98768.00;5112685;28;20035;-68
2022/06/27 10:26:41;;;;;;;2.75;1.25;;;;;;;34.12;38.99;98766.19;5113841;28;20119;-68
2022/06/27 10:29:33;;;;;;;4.13;1.25;;;;;;;31.50;43.67;98771.38;5098469;28;20043;-68
2022/06/27 10:32:50;;;;;;;1.17;0.98;;;;;;;31.68;44.45;98779.25;5101482;28;20111;-67
2022/06/27 10:38:46;;;;;;;1.30;1.10;;;;;;;32.78;42.13;98767.34;5111231;28;20384;-68
2022/06/27 10:41:36;;;;;;;4.75;1.10;;;;;;;32.60;42.17;98761.16;5097857;28;20044;-67
2022/06/27 10:44:30;;;;;;;1.88;1.20;;;;;;;33.78;38.86;98760.00;5112919;28;20043;-65
2022/06/27 10:47:32;;;;;;;4.75;1.20;;;;;;;32.78;40.81;98764.63;5112941;28;20110;-67
2022/06/27 10:50:22;;;;;;;2.88;1.30;;;;;;;32.46;40.99;98760.69;5101341;28;20420;-66
2022/06/27 10:53:26;;;;;;;2.28;1.23;;;;;;;32.53;41.70;98757.84;5085308;28;20486;-67
2022/06/27 10:56:29;;;;;;;1.38;1.10;;;;;;;34.37;38.38;98749.25;5097870;28;20104;-67
2022/06/27 10:59:13;;;;;;;3.15;0.98;;;;;;;34.48;36.88;98752.84;5097634;28;20039;-68
2022/06/27 11:02:01;;;;;;;1.50;1.10;;;;;;;33.96;38.37;98747.09;5113246;28;20047;-67
2022/06/27 11:04:46;;;;;;;1.45;1.00;;;;;;;32.17;42.18;98750.00;5113046;28;20035;-68
2022/06/27 11:07:30;;;;;;;1.98;1.20;;;;;;;32.76;41.65;98753.22;5113358;28;20046;-67
2022/06/27 11:10:15;;;;;;;3.10;1.17;;;;;;;34.93;36.07;98743.53;5084848;28;20100;-67
2022/06/27 11:13:00;;;;;;;2.33;0.85;;;;;;;33.10;39.55;98739.53;5113821;28;20058;-66
2022/06/27 11:15:51;;;;;;;3.10;1.15;;;;;;;32.23;40.30;98765.25;5099915;28;20145;-67
2022/06/27 11:18:49;;;;;;;1.45;0.95;;;;;;;32.29;39.50;98736.34;5099597;28;20032;-67
2022/06/27 11:21:37;;;;;;;2.17;1.25;;;;;;;32.97;37.89;98765.13;5112762;28;20040;-66
2022/06/27 11:24:22;;;;;;;2.25;1.40;;;;;;;32.59;39.08;98759.53;5113288;28;20031;-67
2022/06/27 11:27:07;;;;;;;1.77;1.08;;;;;;;32.79;39.54;98745.41;5111995;28;20039;-66
2022/06/27 11:32:59;;;;;;;2.63;1.55;;;;;;;31.65;40.79;98744.56;5114326;28;20043;-65
2022/06/27 11:35:46;;;;;;;2.28;1.27;;;;;;;31.90;40.69;98742.53;5102983;28;20676;-67
2022/06/27 11:38:40;;;;;;;2.78;1.38;;;;;;;31.44;41.92;98741.53;5089036;28;20367;-66
2022/06/27 11:41:29;;;;;;;5.10;1.25;;;;;;;33.59;37.61;98724.22;5083259;28;20161;-67
2022/06/27 11:44:14;;;;;;;3.67;1.08;;;;;;;33.64;38.16;98728.94;5097494;28;20043;-67
2022/06/27 11:47:09;;;;;;;5.25;1.30;;;;;;;32.88;38.11;98748.50;5113650;28;20031;-67
2022/06/27 11:50:06;;;;;;;3.97;1.08;;;;;;;31.66;40.04;98742.69;5083549;28;20039;-66
2022/06/27 11:52:53;;;;;;;1.90;1.42;;;;;;;32.59;38.70;98726.19;5113705;28;20087;-67
2022/06/27 11:55:38;;;;;;;3.42;1.50;;;;;;;32.77;38.82;98735.91;5107411;28;20046;-66
2022/06/27 11:58:23;;;;;;;3.92;1.30;;;;;;;32.68;39.36;98727.38;5065899;28;20093;-67
2022/06/27 12:01:10;;;;;;;4.00;1.15;;;;;;;34.28;37.04;98729.91;5109682;28;20024;-67
2022/06/27 12:04:28;;;;;;;2.95;1.00;;;;;;;34.41;37.43;98719.63;5082551;28;20044;-68
2022/06/27 12:07:14;;;;;;;2.63;1.30;;;;;;;35.60;34.85;98716.41;5031951;28;20130;-67
2022/06/27 12:09:59;;;;;;;2.63;1.23;;;;;;;33.96;36.03;98719.94;5111603;28;20117;-65
2022/06/27 12:12:45;;;;;;;3.08;1.08;;;;;;;34.67;35.63;98724.38;5111444;28;20608;-67
2022/06/27 12:15:29;;;;;;;1.38;0.80;;;;;;;35.06;35.33;98707.63;5111975;28;20040;-67
2022/06/27 12:18:14;;;;;;;3.10;1.10;;;;;;;36.63;34.16;98697.38;5111486;28;20096;-67
2022/06/27 12:21:02;;;;;;;3.85;1.20;;;;;;;35.31;33.88;98718.84;5091044;28;20059;-66
2022/06/27 12:23:47;;;;;;;3.25;1.25;;;;;;;34.47;35.57;98710.41;5082883;28;20040;-66
2022/06/27 12:26:33;;;;;;;3.95;1.20;;;;;;;33.28;37.36;98726.69;5095168;28;20368;-65
2022/06/27 12:29:17;;;;;;;4.75;1.10;;;;;;;32.91;36.99;98707.31;5094768;28;20125;-66
2022/06/27 12:32:04;;;;;;;2.35;0.98;;;;;;;33.70;35.65;98694.50;5095550;28;20460;-66
2022/06/27 12:34:49;;;;;;;2.25;1.02;;;;;;;33.96;34.49;98698.19;5079700;28;20040;-66
2022/06/27 12:37:35;;;;;;;1.95;1.17;;;;;;;32.28;38.13;98716.56;5084152;28;20040;-66
2022/06/27 12:40:19;;;;;;;4.68;1.30;;;;;;;31.82;39.79;98708.56;5095129;28;20375;-65
2022/06/27 12:43:05;;;;;;;1.33;1.10;;;;;;;32.78;39.02;98705.81;5084350;28;20064;-65
2022/06/27 12:45:52;;;;;;;3.53;1.30;;;;;;;33.54;37.45;98695.16;5095080;28;20120;-65
2022/06/27 12:48:38;;;;;;;2.53;1.38;;;;;;;34.20;36.27;98697.81;5095310;28;20384;-66
2022/06/27 12:51:25;;;;;;;2.55;1.15;;;;;;;34.52;35.76;98685.19;5073973;28;20536;-65
2022/06/27 12:54:10;;;;;;;2.95;1.20;;;;;;;32.46;38.71;98692.97;5091043;28;20501;-66
2022/06/27 12:56:57;;;;;;;3.70;1.35;;;;;;;31.67;39.17;98698.31;5095963;28;20076;-64
2022/06/27 12:59:43;;;;;;;2.75;1.42;;;;;;;32.44;37.01;98679.66;5089418;28;20116;-65
2022/06/27 13:02:28;;;;;;;3.47;1.00;;;;;;;33.03;37.63;98682.75;5089186;28;20032;-64
2022/06/27 13:05:14;;;;;;;3.85;1.10;;;;;;;34.58;34.26;98684.13;5068944;28;20055;-65
2022/06/27 13:07:59;;;;;;;3.90;1.30;;;;;;;34.53;34.78;98686.81;5093463;28;20093;-66
2022/06/27 13:10:44;;;;;;;2.85;1.10;;;;;;;34.39;33.93;98689.22;5059850;28;20098;-65
2022/06/27 13:13:29;;;;;;;2.72;1.25;;;;;;;33.77;34.19;98682.31;5084185;28;20032;-66
2022/06/27 13:16:14;;;;;;;4.47;1.20;;;;;;;32.93;36.80;98690.78;5074442;28;20068;-65
2022/06/27 13:18:59;;;;;;;2.50;1.20;;;;;;;33.27;35.36;98692.50;5093458;28;20085;-64
2022/06/27 13:21:44;;;;;;;4.43;1.15;;;;;;;33.33;35.56;98696.06;5094420;28;20051;-65
2022/06/27 13:24:29;;;;;;;5.50;1.10;;;;;;;33.47;35.00;98689.16;5095188;28;20044;-66